Cloverdale, Alabama
Current Conditions -  °F | °C
As of 3:53 AM on Friday 21 Nov 2014 (Local Time) from KMSL Reporting Station
Broken Clouds Broken Clouds  
Wind Chill: 39°   Ceiling: 8500
Heat Index: 39°   Visibility: 10mi
Dew Point: 30°   Wind: 0mph
Humidity: 70%   Direction: NA
Pressure: 30.33"   Gusts: NA
Location:  34.94°N, 87.77°W
Report Text: KMSL 210953Z AUTO 00000KT 10SM BKN085 04/M01 A3033 RMK AO2 SLP271 T00391011 $
Loading
Personal Weather Stations






























Interactive Weather Map New forecast layout! Learn more

10-Day Weather Forecast

Advertisements
Track Severe Weather on mobile